createdAt,value
2018-09-14T00:00:35.069Z,31.63
2018-09-14T00:03:03.894Z,31.07
2018-09-14T00:05:32.299Z,28.90
2018-09-14T00:08:00.692Z,29.60
2018-09-14T00:10:29.017Z,28.30
2018-09-14T00:12:57.345Z,29.00
2018-09-14T00:15:25.648Z,30.03
2018-09-14T00:17:53.978Z,28.80
2018-09-14T00:20:22.379Z,28.83
2018-09-14T00:22:50.808Z,25.50
2018-09-14T00:25:19.132Z,25.10
2018-09-14T00:27:47.484Z,25.73
2018-09-14T00:30:15.912Z,25.97
2018-09-14T00:32:44.248Z,20.00
2018-09-14T00:35:12.555Z,25.60
2018-09-14T00:37:40.981Z,22.60
2018-09-14T00:40:09.292Z,16.43
2018-09-14T00:42:37.619Z,26.07
2018-09-14T00:45:06.289Z,18.00
2018-09-14T00:47:34.615Z,17.77
2018-09-14T00:50:02.909Z,24.70
2018-09-14T00:52:31.331Z,23.63
2018-09-14T00:54:59.636Z,22.93
2018-09-14T00:57:27.951Z,22.87
2018-09-14T00:59:56.248Z,24.87
2018-09-14T01:02:24.572Z,24.70
2018-09-14T01:04:52.876Z,26.50
2018-09-14T01:07:21.206Z,26.57
2018-09-14T01:09:49.560Z,29.37
2018-09-14T01:12:17.892Z,27.70
2018-09-14T01:14:46.192Z,28.17
2018-09-14T01:17:14.577Z,26.00
2018-09-14T01:19:42.836Z,27.40
2018-09-14T01:22:11.166Z,27.47
2018-09-14T01:24:39.466Z,26.27
2018-09-14T01:27:07.892Z,25.80
2018-09-14T01:29:36.197Z,26.23
2018-09-14T01:32:04.516Z,27.20
2018-09-14T01:34:32.862Z,31.80
2018-09-14T01:37:01.172Z,28.60
2018-09-14T01:39:29.475Z,26.10
2018-09-14T01:41:57.800Z,27.10
2018-09-14T01:44:26.121Z,26.20
2018-09-14T01:46:54.512Z,25.30
2018-09-14T01:49:22.834Z,26.57
2018-09-14T01:51:51.132Z,28.70
2018-09-14T01:54:19.456Z,27.80
2018-09-14T01:56:47.792Z,28.63
2018-09-14T01:59:16.117Z,28.53
2018-09-14T02:01:44.434Z,28.33
2018-09-14T02:04:12.757Z,30.47
2018-09-14T02:06:41.132Z,30.50
2018-09-14T02:09:10.327Z,32.87
2018-09-14T02:11:38.641Z,29.07
2018-09-14T02:14:07.052Z,30.27
2018-09-14T02:16:35.480Z,33.67
2018-09-14T02:19:04.096Z,35.40
2018-09-14T02:21:32.402Z,35.63
2018-09-14T02:24:00.824Z,36.77
2018-09-14T02:26:29.125Z,38.77
2018-09-14T02:28:57.451Z,38.60
2018-09-14T02:31:25.750Z,39.27
2018-09-14T02:33:54.072Z,39.10
2018-09-14T02:36:22.372Z,38.20
2018-09-14T02:38:50.692Z,38.03
2018-09-14T02:41:18.988Z,37.20
2018-09-14T02:43:47.545Z,40.20
2018-09-14T02:46:15.853Z,37.70
2018-09-14T02:48:44.188Z,36.30
2018-09-14T02:51:12.501Z,38.80
2018-09-14T02:53:40.840Z,40.27
2018-09-14T02:56:09.140Z,36.30
2018-09-14T02:58:37.488Z,35.17
2018-09-14T03:01:05.858Z,35.97
2018-09-14T03:03:34.187Z,35.67
2018-09-14T03:06:02.494Z,33.97
2018-09-14T03:08:30.819Z,35.50
2018-09-14T03:10:59.140Z,34.70
2018-09-14T03:13:27.480Z,32.63
2018-09-14T03:15:55.780Z,32.77
2018-09-14T03:18:24.169Z,33.90
2018-09-14T03:20:52.460Z,34.80
2018-09-14T03:23:20.771Z,35.47
2018-09-14T03:25:49.069Z,36.47
2018-09-14T03:28:17.442Z,38.13
2018-09-14T03:30:45.751Z,41.40
2018-09-14T03:33:14.073Z,39.93
2018-09-14T03:35:42.376Z,38.80
2018-09-14T03:38:10.695Z,39.20
2018-09-14T03:40:39.009Z,39.27
2018-09-14T03:43:07.328Z,36.60
2018-09-14T03:45:35.639Z,34.37
2018-09-14T03:48:04.065Z,35.50
2018-09-14T03:50:32.496Z,33.90
2018-09-14T03:53:00.865Z,29.27
2018-09-14T03:55:29.167Z,30.23
2018-09-14T03:57:57.472Z,30.80
2018-09-14T04:00:25.792Z,33.57
2018-09-14T04:02:54.083Z,32.27
2018-09-14T04:05:22.396Z,32.90
2018-09-14T04:07:50.784Z,33.77
2018-09-14T04:10:19.076Z,32.43
2018-09-14T04:12:47.384Z,33.70
2018-09-14T04:15:15.692Z,31.90
2018-09-14T04:17:43.992Z,29.57
2018-09-14T04:20:12.318Z,29.80
2018-09-14T04:22:40.620Z,29.80
2018-09-14T04:25:08.939Z,28.73
2018-09-14T04:27:37.244Z,29.27
2018-09-14T04:30:05.564Z,28.30
2018-09-14T04:32:33.856Z,29.97
2018-09-14T04:35:02.176Z,29.63
2018-09-14T04:37:30.480Z,30.80
2018-09-14T04:39:58.797Z,31.53
2018-09-14T04:42:27.107Z,27.40
2018-09-14T04:44:55.436Z,26.30
2018-09-14T04:47:23.745Z,25.20
2018-09-14T04:49:52.064Z,24.77
2018-09-14T04:52:20.376Z,26.47
2018-09-14T04:54:48.692Z,20.80
2018-09-14T04:57:17.165Z,21.63
2018-09-14T04:59:45.440Z,18.33
2018-09-14T05:02:13.744Z,19.47
2018-09-14T05:04:42.080Z,20.00
2018-09-14T05:07:10.392Z,19.43
2018-09-14T05:09:38.733Z,18.93
2018-09-14T05:12:07.139Z,20.03
2018-09-14T05:14:35.461Z,18.63
2018-09-14T05:17:03.768Z,17.50
2018-09-14T05:19:32.125Z,16.27
2018-09-14T05:22:00.424Z,14.60
2018-09-14T05:24:28.848Z,15.80
2018-09-14T05:26:57.132Z,13.80
2018-09-14T05:29:25.483Z,13.10
2018-09-14T05:31:54.120Z,11.30
2018-09-14T05:34:22.525Z,13.23
2018-09-14T05:36:51.008Z,11.83
2018-09-14T05:39:19.327Z,10.80
2018-09-14T05:41:47.632Z,11.70
2018-09-14T05:44:15.952Z,10.13
2018-09-14T05:46:44.255Z,8.93
2018-09-14T05:49:12.577Z,9.43
2018-09-14T05:51:40.890Z,8.80
2018-09-14T05:54:09.200Z,8.47
2018-09-14T05:56:37.502Z,8.90
2018-09-14T05:59:05.873Z,7.00
2018-09-14T06:01:34.172Z,8.53
2018-09-14T06:04:02.508Z,7.10
2018-09-14T06:06:31.034Z,8.27
2018-09-14T06:08:59.313Z,8.07
2018-09-14T06:11:27.648Z,8.90
2018-09-14T06:13:55.970Z,8.17
2018-09-14T06:16:24.292Z,8.40
2018-09-14T06:18:52.596Z,8.70
2018-09-14T06:21:20.915Z,9.40
2018-09-14T06:23:49.328Z,9.50
2018-09-14T06:26:17.640Z,9.70
2018-09-14T06:28:45.941Z,10.20
2018-09-14T06:31:14.263Z,9.70
2018-09-14T06:33:42.580Z,9.00
2018-09-14T06:36:10.880Z,8.50
2018-09-14T06:38:39.229Z,8.63
2018-09-14T06:41:07.532Z,7.07
2018-09-14T06:43:35.860Z,6.63
2018-09-14T06:46:04.163Z,6.87
2018-09-14T06:48:32.480Z,7.93
2018-09-14T06:51:00.784Z,7.27
2018-09-14T06:53:29.096Z,6.90
2018-09-14T06:55:57.396Z,7.03
2018-09-14T06:58:25.924Z,7.70
2018-09-14T07:00:54.224Z,8.27
2018-09-14T07:03:22.520Z,7.90
2018-09-14T07:05:50.873Z,10.97
2018-09-14T07:08:19.184Z,9.23
2018-09-14T07:10:47.521Z,8.50
2018-09-14T07:13:15.856Z,10.13
2018-09-14T07:15:44.185Z,9.17
2018-09-14T07:18:12.496Z,8.70
2018-09-14T07:20:40.808Z,9.03
2018-09-14T07:23:09.363Z,8.57
2018-09-14T07:25:37.699Z,8.00
2018-09-14T07:28:05.995Z,8.47
2018-09-14T07:30:34.343Z,8.60
2018-09-14T07:33:02.648Z,10.60
2018-09-14T07:35:31.204Z,8.87
2018-09-14T07:37:59.500Z,7.80
2018-09-14T07:40:27.816Z,8.37
2018-09-14T07:42:56.117Z,8.30
2018-09-14T07:45:24.436Z,7.50
2018-09-14T07:47:52.723Z,8.77
2018-09-14T07:50:21.041Z,6.70
2018-09-14T07:52:49.340Z,6.57
2018-09-14T07:55:17.705Z,7.97
2018-09-14T07:57:45.974Z,6.90
2018-09-14T08:00:14.296Z,6.80
2018-09-14T08:02:42.600Z,7.80
2018-09-14T08:05:10.920Z,8.70
2018-09-14T08:07:39.230Z,9.30
2018-09-14T08:10:07.568Z,8.70
2018-09-14T08:12:35.920Z,8.23
2018-09-14T08:15:04.228Z,7.53
2018-09-14T08:17:32.532Z,7.53
2018-09-14T08:20:00.916Z,6.83
2018-09-14T08:22:29.297Z,6.97
2018-09-14T08:24:57.755Z,8.47
2018-09-14T08:27:26.061Z,7.70
2018-09-14T08:29:54.376Z,9.07
2018-09-14T08:32:22.708Z,8.77
2018-09-14T08:34:51.028Z,11.20
2018-09-14T08:37:19.591Z,10.43
2018-09-14T08:39:47.924Z,12.43
2018-09-14T08:42:16.221Z,13.37
2018-09-14T08:44:44.543Z,14.80
2018-09-14T08:47:12.852Z,13.40
2018-09-14T08:49:41.177Z,12.97
2018-09-14T08:52:09.490Z,13.80
2018-09-14T08:54:37.808Z,13.67
2018-09-14T08:57:06.124Z,12.60
2018-09-14T08:59:34.487Z,13.03
2018-09-14T09:02:02.800Z,11.77
2018-09-14T09:04:31.131Z,11.20
2018-09-14T09:06:59.436Z,11.33
2018-09-14T09:09:27.751Z,9.63
2018-09-14T09:11:56.084Z,10.70
2018-09-14T09:14:24.385Z,10.57
2018-09-14T09:16:52.700Z,7.33
2018-09-14T09:19:21.009Z,7.43
2018-09-14T09:21:49.340Z,9.37
2018-09-14T09:24:17.653Z,10.20
2018-09-14T09:26:45.969Z,9.90
2018-09-14T09:29:14.298Z,10.50
2018-09-14T09:31:42.649Z,9.10
2018-09-14T09:34:10.952Z,8.40
2018-09-14T09:36:39.274Z,5.10
2018-09-14T09:39:09.579Z,4.77
2018-09-14T09:41:37.895Z,5.47
2018-09-14T09:44:06.522Z,5.80
2018-09-14T09:46:34.836Z,5.10
2018-09-14T09:49:03.123Z,6.23
2018-09-14T09:51:31.458Z,9.97
2018-09-14T09:53:59.756Z,10.43
2018-09-14T09:56:28.192Z,8.17
2018-09-14T09:58:56.504Z,8.70
2018-09-14T10:01:33.751Z,8.80
2018-09-14T10:04:07.988Z,9.87
2018-09-14T10:06:36.276Z,8.70
2018-09-14T10:09:07.604Z,6.17
2018-09-14T10:11:35.968Z,8.30
2018-09-14T10:14:04.703Z,8.03
2018-09-14T10:16:32.983Z,8.73
2018-09-14T10:19:01.299Z,9.10
2018-09-14T10:21:29.680Z,8.70
2018-09-14T10:23:57.941Z,8.73
2018-09-14T10:26:26.250Z,6.90
2018-09-14T10:28:54.563Z,7.80
2018-09-14T10:31:22.863Z,7.23
2018-09-14T10:33:51.362Z,5.00
2018-09-14T10:36:19.604Z,4.53
2018-09-14T10:38:47.964Z,5.00
2018-09-14T10:41:16.264Z,7.67
2018-09-14T10:43:44.613Z,7.30
2018-09-14T10:46:12.944Z,7.40
2018-09-14T10:48:41.272Z,5.30
2018-09-14T10:51:09.708Z,4.30
2018-09-14T10:53:38.015Z,7.40
2018-09-14T10:56:06.334Z,7.90
2018-09-14T10:58:40.030Z,8.00
2018-09-14T11:01:08.339Z,8.07
2018-09-14T11:03:36.648Z,6.33
2018-09-14T11:06:04.940Z,6.67
2018-09-14T11:08:33.324Z,9.47
2018-09-14T11:11:01.684Z,8.27
2018-09-14T11:13:30.020Z,5.50
2018-09-14T11:15:58.316Z,8.57
2018-09-14T11:18:26.900Z,5.60
2018-09-14T11:20:55.199Z,6.30
2018-09-14T11:23:23.513Z,5.40
2018-09-14T11:25:51.808Z,6.90
2018-09-14T11:28:20.123Z,7.57
2018-09-14T11:30:48.462Z,5.57
2018-09-14T11:33:16.776Z,6.80
2018-09-14T11:35:45.069Z,6.40
2018-09-14T11:38:13.470Z,5.90
2018-09-14T11:40:41.721Z,7.83
2018-09-14T11:43:10.021Z,8.27
2018-09-14T11:45:38.436Z,8.97
2018-09-14T11:48:06.797Z,8.23
2018-09-14T11:50:35.133Z,8.13
2018-09-14T11:53:03.431Z,9.47
2018-09-14T11:55:31.761Z,7.57
2018-09-14T11:58:00.072Z,7.83
2018-09-14T12:00:28.420Z,7.53
2018-09-14T12:02:56.720Z,7.80
2018-09-14T12:05:25.039Z,7.60
2018-09-14T12:07:53.336Z,7.43
2018-09-14T12:10:21.647Z,7.70
2018-09-14T12:12:49.989Z,7.73
2018-09-14T12:15:18.334Z,6.90
2018-09-14T12:17:46.636Z,7.60
2018-09-14T12:20:14.948Z,7.60
2018-09-14T12:22:44.056Z,7.73
2018-09-14T12:25:12.372Z,6.77
2018-09-14T12:27:40.665Z,7.10
2018-09-14T12:30:08.981Z,7.00
2018-09-14T12:32:37.279Z,7.07
2018-09-14T12:35:05.588Z,7.30
2018-09-14T12:37:33.876Z,8.83
2018-09-14T12:40:02.238Z,9.10
2018-09-14T12:42:30.531Z,6.70
2018-09-14T12:44:58.843Z,7.10
2018-09-14T12:47:27.143Z,6.70
2018-09-14T12:49:55.463Z,8.10
2018-09-14T12:52:23.756Z,7.10
2018-09-14T12:54:52.072Z,6.50
2018-09-14T12:57:20.372Z,6.87
2018-09-14T12:59:48.720Z,6.60
2018-09-14T13:02:17.028Z,7.93
2018-09-14T13:04:45.341Z,7.60
2018-09-14T13:07:13.636Z,6.80
2018-09-14T13:09:41.956Z,7.50
2018-09-14T13:12:10.244Z,7.00
2018-09-14T13:14:38.647Z,7.67
2018-09-14T13:17:11.476Z,6.50
2018-09-14T13:19:40.007Z,7.23
2018-09-14T13:22:08.613Z,7.47
2018-09-14T13:24:36.959Z,8.33
2018-09-14T13:27:05.365Z,8.13
2018-09-14T13:29:33.788Z,9.07
2018-09-14T13:32:02.075Z,8.73
2018-09-14T13:34:30.368Z,8.20
2018-09-14T13:36:58.720Z,8.60
2018-09-14T13:39:27.012Z,8.03
2018-09-14T13:41:55.328Z,7.30
2018-09-14T13:44:23.652Z,8.47
2018-09-14T13:46:51.969Z,8.47
2018-09-14T13:49:20.272Z,9.43
2018-09-14T13:51:48.588Z,8.43
2018-09-14T13:54:16.887Z,8.80
2018-09-14T13:56:45.200Z,9.10
2018-09-14T13:59:13.510Z,8.77
2018-09-14T14:01:41.872Z,8.27
2018-09-14T14:04:10.168Z,9.03
2018-09-14T14:06:38.524Z,9.37
2018-09-14T14:09:10.316Z,9.20
2018-09-14T14:11:38.640Z,10.70
2018-09-14T14:14:07.199Z,9.30
2018-09-14T14:16:35.589Z,9.50
2018-09-14T14:19:03.833Z,6.93
2018-09-14T14:21:32.159Z,7.40
2018-09-14T14:24:00.467Z,6.70
2018-09-14T14:26:28.795Z,6.10
2018-09-14T14:28:57.076Z,6.87
2018-09-14T14:31:25.400Z,7.30
2018-09-14T14:33:53.699Z,6.83
2018-09-14T14:36:22.012Z,6.57
2018-09-14T14:38:50.307Z,6.10
2018-09-14T14:41:18.649Z,8.80
2018-09-14T14:43:47.016Z,7.30
2018-09-14T14:46:15.328Z,5.90
2018-09-14T14:48:44.309Z,5.80
2018-09-14T14:51:12.636Z,6.87
2018-09-14T14:53:40.916Z,6.87
2018-09-14T14:56:09.734Z,6.07
2018-09-14T14:58:38.051Z,5.70
2018-09-14T15:01:06.385Z,7.07
2018-09-14T15:03:34.692Z,8.10
2018-09-14T15:06:03.013Z,8.50
2018-09-14T15:08:31.313Z,6.17
2018-09-14T15:10:59.936Z,7.33
2018-09-14T15:13:28.241Z,7.03
2018-09-14T15:15:56.551Z,6.10
2018-09-14T15:18:24.852Z,6.40
2018-09-14T15:20:53.174Z,6.30
2018-09-14T15:23:21.463Z,6.00
2018-09-14T15:25:49.771Z,6.77
2018-09-14T15:28:18.064Z,6.63
2018-09-14T15:30:46.380Z,7.53
2018-09-14T15:33:14.680Z,7.40
2018-09-14T15:35:42.988Z,6.47
2018-09-14T15:38:11.289Z,7.20
2018-09-14T15:40:39.601Z,6.37
2018-09-14T15:43:07.892Z,6.00
2018-09-14T15:45:36.582Z,7.23
2018-09-14T15:48:04.888Z,6.50
2018-09-14T15:50:33.216Z,6.47
2018-09-14T15:53:01.538Z,10.60
2018-09-14T15:55:29.835Z,5.83
2018-09-14T15:59:01.648Z,8.67
2018-09-14T16:01:29.974Z,5.03
2018-09-14T16:03:58.280Z,5.50
2018-09-14T16:06:26.595Z,5.63
2018-09-14T16:08:54.896Z,6.30
2018-09-14T16:11:23.210Z,5.90
2018-09-14T16:13:51.516Z,6.47
2018-09-14T16:16:19.833Z,6.60
2018-09-14T16:18:48.186Z,6.37
2018-09-14T16:21:16.468Z,6.27
2018-09-14T16:23:44.768Z,6.30
2018-09-14T16:26:13.157Z,6.90
2018-09-14T16:28:41.456Z,6.87
2018-09-14T16:31:09.783Z,8.10
2018-09-14T16:33:38.114Z,6.20
2018-09-14T16:36:06.512Z,7.43
2018-09-14T16:38:35.099Z,7.33
2018-09-14T16:41:03.428Z,7.83
2018-09-14T16:43:31.952Z,7.60
2018-09-14T16:46:00.362Z,8.43
2018-09-14T16:48:28.788Z,7.47
2018-09-14T16:50:57.088Z,6.73
2018-09-14T16:53:25.408Z,6.93
2018-09-14T16:55:53.700Z,9.03
2018-09-14T16:58:22.014Z,9.10
2018-09-14T17:00:50.320Z,9.53
2018-09-14T17:03:18.724Z,6.97
2018-09-14T17:05:47.044Z,7.87
2018-09-14T17:08:15.352Z,6.27
2018-09-14T17:10:43.649Z,5.53
2018-09-14T17:13:12.261Z,7.13
2018-09-14T17:15:40.552Z,6.37
2018-09-14T17:18:08.869Z,6.47
2018-09-14T17:20:37.171Z,10.50
2018-09-14T17:23:05.529Z,6.53
2018-09-14T17:25:33.921Z,6.83
2018-09-14T17:28:02.235Z,6.23
2018-09-14T17:30:30.545Z,7.63
2018-09-14T17:32:58.864Z,10.73
2018-09-14T17:35:27.263Z,9.27
2018-09-14T17:37:55.560Z,8.90
2018-09-14T17:40:23.860Z,7.63
2018-09-14T17:42:52.180Z,6.70
2018-09-14T17:45:20.493Z,7.33
2018-09-14T17:47:48.804Z,6.83
2018-09-14T17:50:17.095Z,7.10
2018-09-14T17:52:45.417Z,8.20
2018-09-14T17:55:13.716Z,8.73
2018-09-14T17:57:42.114Z,7.70
2018-09-14T18:00:11.077Z,7.17
2018-09-14T18:02:39.850Z,6.27
2018-09-14T18:05:08.180Z,7.30
2018-09-14T18:07:36.492Z,8.43
2018-09-14T18:10:05.010Z,9.70
2018-09-14T18:12:33.350Z,10.17
2018-09-14T18:15:01.666Z,7.80
2018-09-14T18:17:29.979Z,7.83
2018-09-14T18:19:58.292Z,6.90
2018-09-14T18:22:26.618Z,7.50
2018-09-14T18:24:55.013Z,8.17
2018-09-14T18:27:23.358Z,6.93
2018-09-14T18:29:51.712Z,8.03
2018-09-14T18:32:20.031Z,7.47
2018-09-14T18:34:48.339Z,9.70
2018-09-14T18:37:16.659Z,7.40
2018-09-14T18:39:44.956Z,7.07
2018-09-14T18:42:13.279Z,8.17
2018-09-14T18:44:41.588Z,7.30
2018-09-14T18:47:09.944Z,7.37
2018-09-14T18:49:38.411Z,7.57
2018-09-14T18:52:07.723Z,7.33
2018-09-14T18:54:36.345Z,7.23
2018-09-14T18:57:04.754Z,7.43
2018-09-14T18:59:33.640Z,7.77
2018-09-14T19:02:05.413Z,8.37
2018-09-14T19:04:33.852Z,8.60
2018-09-14T19:07:02.226Z,8.50
2018-09-14T19:09:31.289Z,10.10
2018-09-14T19:11:59.775Z,9.73
2018-09-14T19:14:28.612Z,9.20
2018-09-14T19:16:56.948Z,10.40
2018-09-14T19:19:25.437Z,11.60
2018-09-14T19:21:55.600Z,11.10
2018-09-14T19:24:24.237Z,8.60
2018-09-14T19:26:53.234Z,10.30
2018-09-14T19:29:22.838Z,9.00
2018-09-14T19:31:51.180Z,8.80
2018-09-14T19:34:19.501Z,8.10
2018-09-14T19:36:47.816Z,8.33
2018-09-14T19:39:16.147Z,11.20
2018-09-14T19:41:45.597Z,11.47
2018-09-14T19:44:13.979Z,12.80
2018-09-14T19:46:42.291Z,12.23
2018-09-14T19:49:10.620Z,12.50
2018-09-14T19:51:39.033Z,14.03
2018-09-14T19:54:07.395Z,13.47
2018-09-14T19:56:35.711Z,9.67
2018-09-14T19:59:04.336Z,9.70
2018-09-14T20:01:32.825Z,13.03
2018-09-14T20:04:03.370Z,15.77
2018-09-14T20:06:31.744Z,15.30
2018-09-14T20:09:01.111Z,15.60
2018-09-14T20:11:30.493Z,16.53
2018-09-14T20:13:59.214Z,17.03
2018-09-14T20:16:29.440Z,13.47
2018-09-14T20:18:57.954Z,11.47
2018-09-14T20:21:28.544Z,12.87
2018-09-14T20:23:59.690Z,32.73
2018-09-14T20:26:28.336Z,25.90
2018-09-14T20:28:56.812Z,19.00
2018-09-14T20:31:25.156Z,17.90
2018-09-14T20:33:53.472Z,16.90
2018-09-14T20:36:21.787Z,13.20
2018-09-14T20:38:50.260Z,12.77
2018-09-14T20:41:18.561Z,13.07
2018-09-14T20:43:47.196Z,12.40
2018-09-14T20:46:15.524Z,12.00
2018-09-14T20:48:43.844Z,11.93
2018-09-14T20:51:12.144Z,11.00
2018-09-14T20:53:40.468Z,10.57
2018-09-14T20:56:08.780Z,10.30
2018-09-14T20:58:37.096Z,12.50
2018-09-14T21:01:05.540Z,10.10
2018-09-14T21:03:33.868Z,10.53
2018-09-14T21:06:02.189Z,11.80
2018-09-14T21:08:30.504Z,9.90
2018-09-14T21:10:58.813Z,9.97
2018-09-14T21:13:27.131Z,10.10
2018-09-14T21:15:56.363Z,9.07
2018-09-14T21:18:24.712Z,10.03
2018-09-14T21:20:53.016Z,8.57
2018-09-14T21:23:21.343Z,8.73
2018-09-14T21:25:49.660Z,9.50
2018-09-14T21:28:17.988Z,9.80
2018-09-14T21:30:46.289Z,13.10
2018-09-14T21:33:14.587Z,10.47
2018-09-14T21:35:42.928Z,11.60
2018-09-14T21:38:11.227Z,11.10
2018-09-14T21:40:39.551Z,11.23
2018-09-14T21:43:07.857Z,11.47
2018-09-14T21:45:36.172Z,9.30
2018-09-14T21:48:04.468Z,9.73
2018-09-14T21:50:32.794Z,9.40
2018-09-14T21:53:01.132Z,9.40
2018-09-14T21:55:29.480Z,8.70
2018-09-14T21:57:57.785Z,8.10
2018-09-14T22:00:31.965Z,8.00
2018-09-14T22:03:00.260Z,7.80
2018-09-14T22:05:28.576Z,8.20
2018-09-14T22:07:56.880Z,10.37
2018-09-14T22:10:25.199Z,8.80
2018-09-14T22:12:53.496Z,9.10
2018-09-14T22:15:21.811Z,9.07
2018-09-14T22:17:50.113Z,10.53
2018-09-14T22:20:18.436Z,10.53
2018-09-14T22:22:46.736Z,11.20
2018-09-14T22:25:15.057Z,12.90
2018-09-14T22:27:43.414Z,10.93
2018-09-14T22:30:11.721Z,7.60
2018-09-14T22:32:40.024Z,8.97
2018-09-14T22:35:08.424Z,11.80
2018-09-14T22:37:36.700Z,12.30
2018-09-14T22:40:05.024Z,11.33
2018-09-14T22:42:33.336Z,11.70
2018-09-14T22:45:01.654Z,8.80
2018-09-14T22:47:29.951Z,11.63
2018-09-14T22:49:58.275Z,12.13
2018-09-14T22:52:26.597Z,12.27
2018-09-14T22:54:54.928Z,8.30
2018-09-14T22:57:23.231Z,8.97
2018-09-14T22:59:51.571Z,8.67
2018-09-14T23:02:19.874Z,8.00
2018-09-14T23:04:48.200Z,9.17
2018-09-14T23:07:16.506Z,8.20
2018-09-14T23:09:44.835Z,9.50
2018-09-14T23:12:13.132Z,7.47
2018-09-14T23:14:41.441Z,8.50
2018-09-14T23:17:09.740Z,7.80
2018-09-14T23:19:38.056Z,9.57
2018-09-14T23:22:06.344Z,8.80
2018-09-14T23:24:34.663Z,10.43
2018-09-14T23:27:02.958Z,8.30
2018-09-14T23:29:31.272Z,8.20
2018-09-14T23:31:59.576Z,8.20
2018-09-14T23:34:27.902Z,8.20
2018-09-14T23:36:56.199Z,7.93
2018-09-14T23:39:24.516Z,8.60
2018-09-14T23:41:52.816Z,8.90
2018-09-14T23:44:21.144Z,9.13
2018-09-14T23:46:49.447Z,8.80
2018-09-14T23:49:17.740Z,8.03
2018-09-14T23:51:46.056Z,8.60
2018-09-14T23:54:14.356Z,7.83
2018-09-14T23:56:42.672Z,7.57
2018-09-14T23:59:10.976Z,8.07
